createdAt,value
2023-05-08T00:02:10.066Z,79.04
2023-05-08T00:07:13.172Z,80.10
2023-05-08T00:12:16.185Z,81.12
2023-05-08T00:17:19.285Z,82.68
2023-05-08T00:22:22.495Z,82.86
2023-05-08T00:27:25.626Z,83.10
2023-05-08T00:32:29.291Z,82.85
2023-05-08T00:37:32.422Z,83.60
2023-05-08T00:42:35.320Z,83.18
2023-05-08T00:47:38.877Z,82.85
2023-05-08T00:52:41.900Z,83.02
2023-05-08T00:57:46.886Z,83.96
2023-05-08T01:02:50.266Z,84.81
2023-05-08T01:07:53.404Z,84.32
2023-05-08T01:13:11.906Z,84.69
2023-05-08T01:18:18.158Z,84.34
2023-05-08T01:23:39.696Z,85.02
2023-05-08T01:28:45.865Z,85.71
2023-05-08T01:33:57.038Z,86.73
2023-05-08T01:39:09.385Z,87.34
2023-05-08T01:44:24.574Z,87.43
2023-05-08T01:49:30.342Z,88.24
2023-05-08T01:54:36.622Z,89.32
2023-05-08T01:59:41.882Z,90.03
2023-05-08T02:04:45.082Z,91.02
2023-05-08T02:09:48.808Z,90.60
2023-05-08T02:14:53.555Z,90.25
2023-05-08T02:19:58.393Z,90.09
2023-05-08T02:25:01.501Z,89.94
2023-05-08T02:30:04.606Z,89.69
2023-05-08T02:35:08.582Z,90.31
2023-05-08T02:40:13.341Z,90.12
2023-05-08T02:45:17.004Z,90.14
2023-05-08T02:50:23.376Z,90.43
2023-05-08T02:55:46.551Z,91.01
2023-05-08T03:00:54.164Z,91.49
2023-05-08T03:05:58.289Z,91.55
2023-05-08T03:11:15.419Z,91.42
2023-05-08T03:16:21.321Z,91.26
2023-05-08T03:21:26.957Z,91.48
2023-05-08T03:26:30.283Z,91.57
2023-05-08T03:31:34.251Z,91.26
2023-05-08T03:36:37.400Z,91.07
2023-05-08T03:41:40.500Z,91.12
2023-05-08T03:46:45.025Z,90.98
2023-05-08T03:51:48.455Z,90.77
2023-05-08T03:56:54.668Z,90.51
2023-05-08T04:02:10.422Z,88.87
2023-05-08T04:07:19.400Z,85.20
2023-05-08T04:12:25.260Z,80.50
2023-05-08T04:17:35.065Z,75.79
2023-05-08T04:22:39.667Z,71.35
2023-05-08T04:27:44.016Z,66.39
2023-05-08T04:32:48.256Z,62.14
2023-05-08T04:37:51.541Z,58.03
2023-05-08T04:42:54.544Z,54.96
2023-05-08T04:47:57.607Z,52.16
2023-05-08T04:53:00.763Z,50.20
2023-05-08T04:58:03.862Z,48.93
2023-05-08T05:03:06.832Z,45.88
2023-05-08T05:08:09.871Z,44.07
2023-05-08T05:13:12.988Z,42.54
2023-05-08T05:18:16.188Z,40.88
2023-05-08T05:23:19.275Z,39.23
2023-05-08T05:28:22.281Z,38.78
2023-05-08T05:33:25.288Z,37.89
2023-05-08T05:38:28.187Z,36.57
2023-05-08T05:43:32.689Z,36.07
2023-05-08T05:48:36.139Z,34.73
2023-05-08T05:53:39.236Z,34.54
2023-05-08T05:58:45.212Z,33.40
2023-05-08T06:03:48.589Z,32.73
2023-05-08T06:08:51.935Z,31.90
2023-05-08T06:13:55.248Z,31.18
2023-05-08T06:18:58.361Z,30.10
2023-05-08T06:24:01.869Z,29.54
2023-05-08T06:29:04.872Z,28.12
2023-05-08T06:34:08.296Z,27.14
2023-05-08T06:39:11.305Z,26.29
2023-05-08T06:44:15.109Z,24.98
2023-05-08T06:49:18.122Z,24.78
2023-05-08T06:54:21.432Z,24.41
2023-05-08T06:59:24.636Z,22.86
2023-05-08T07:04:28.182Z,22.78
2023-05-08T07:09:32.177Z,23.30
2023-05-08T07:14:35.194Z,22.00
2023-05-08T07:19:38.743Z,20.89
2023-05-08T07:24:41.802Z,20.40
2023-05-08T07:29:44.805Z,20.51
2023-05-08T07:34:48.016Z,19.79
2023-05-08T07:39:51.844Z,19.49
2023-05-08T07:44:55.445Z,19.59
2023-05-08T07:49:58.564Z,18.53
2023-05-08T07:55:01.874Z,17.55
2023-05-08T08:00:08.949Z,17.15
2023-05-08T08:05:12.679Z,16.11
2023-05-08T08:10:15.989Z,15.99
2023-05-08T08:15:19.010Z,16.18
2023-05-08T08:20:22.540Z,15.47
2023-05-08T08:25:25.729Z,15.56
2023-05-08T08:30:28.943Z,15.78
2023-05-08T08:35:33.288Z,15.36
2023-05-08T08:40:40.666Z,15.66
2023-05-08T08:45:43.976Z,14.77
2023-05-08T08:50:49.143Z,13.92
2023-05-08T08:55:54.082Z,15.56
2023-05-08T09:00:58.619Z,15.59
2023-05-08T09:06:01.827Z,15.31
2023-05-08T09:11:05.145Z,14.94
2023-05-08T09:16:08.342Z,15.29
2023-05-08T09:21:11.860Z,15.90
2023-05-08T09:26:27.267Z,15.52
2023-05-08T09:31:37.082Z,15.17
2023-05-08T09:36:42.252Z,15.14
2023-05-08T09:41:57.465Z,15.47
2023-05-08T09:47:20.844Z,15.77
2023-05-08T09:52:24.459Z,15.62
2023-05-08T09:57:28.481Z,15.65
2023-05-08T10:02:31.848Z,15.94
2023-05-08T10:07:37.357Z,16.69
2023-05-08T10:12:41.815Z,18.01
2023-05-08T10:17:51.419Z,19.25
2023-05-08T10:22:57.122Z,20.60
2023-05-08T10:28:07.044Z,21.38
2023-05-08T10:33:11.240Z,22.46
2023-05-08T10:38:15.866Z,24.65
2023-05-08T10:43:19.581Z,24.29
2023-05-08T10:48:41.529Z,24.33
2023-05-08T10:53:49.673Z,24.43
2023-05-08T10:58:56.345Z,25.40
2023-05-08T11:03:59.497Z,25.81
2023-05-08T11:09:02.682Z,26.76
2023-05-08T11:14:08.932Z,26.22
2023-05-08T11:19:18.786Z,26.21
2023-05-08T11:24:32.855Z,26.55
2023-05-08T11:29:36.586Z,26.30
2023-05-08T11:34:42.971Z,26.77
2023-05-08T11:39:47.102Z,25.92
2023-05-08T11:44:50.805Z,25.46
2023-05-08T11:49:55.696Z,26.41
2023-05-08T11:55:01.535Z,27.13
2023-05-08T12:00:06.270Z,27.39
2023-05-08T12:05:09.952Z,26.57
2023-05-08T12:10:13.879Z,27.06
2023-05-08T12:15:17.437Z,27.29
2023-05-08T12:20:20.855Z,26.48
2023-05-08T12:25:26.102Z,26.07
2023-05-08T12:30:29.617Z,25.13
2023-05-08T12:35:33.132Z,26.54
2023-05-08T12:40:41.157Z,25.91
2023-05-08T12:45:44.193Z,26.74
2023-05-08T12:50:47.681Z,26.59
2023-05-08T12:55:53.090Z,26.79
2023-05-08T13:01:05.470Z,26.49
2023-05-08T13:06:19.206Z,26.48
2023-05-08T13:11:30.490Z,26.85
2023-05-08T13:16:42.077Z,26.70
2023-05-08T13:21:47.852Z,26.12
2023-05-08T13:26:50.875Z,26.82
2023-05-08T13:31:54.031Z,26.80
2023-05-08T13:36:58.734Z,26.35
2023-05-08T13:42:01.730Z,26.58
2023-05-08T13:47:04.836Z,26.24
2023-05-08T13:52:07.961Z,26.04
2023-05-08T13:57:11.558Z,26.73
2023-05-08T14:02:14.785Z,27.14
2023-05-08T14:07:18.812Z,25.99
2023-05-08T14:12:21.794Z,25.95
2023-05-08T14:17:25.036Z,26.64
2023-05-08T14:22:28.338Z,27.05
2023-05-08T14:27:31.327Z,27.51
2023-05-08T14:32:34.762Z,27.41
2023-05-08T14:37:37.941Z,27.69
2023-05-08T14:42:41.463Z,28.05
2023-05-08T14:47:44.710Z,27.71
2023-05-08T14:52:48.798Z,27.65
2023-05-08T14:57:51.905Z,27.75
2023-05-08T15:02:55.358Z,27.78
2023-05-08T15:07:58.422Z,27.94
2023-05-08T15:13:01.755Z,27.75
2023-05-08T15:18:05.340Z,27.95
2023-05-08T15:23:08.982Z,27.55
2023-05-08T15:28:11.970Z,27.55
2023-05-08T15:33:15.282Z,27.90
2023-05-08T15:38:18.294Z,27.73
2023-05-08T15:43:21.502Z,27.77
2023-05-08T15:48:24.717Z,28.11
2023-05-08T15:53:27.806Z,28.27
2023-05-08T15:58:30.813Z,28.09
2023-05-08T16:03:34.389Z,27.51
2023-05-08T16:08:37.947Z,27.59
2023-05-08T16:13:40.946Z,27.60
2023-05-08T16:18:44.364Z,27.68
2023-05-08T16:23:47.801Z,28.42
2023-05-08T16:28:51.389Z,28.41
2023-05-08T16:33:54.495Z,27.36
2023-05-08T16:38:57.706Z,27.40
2023-05-08T16:44:01.019Z,27.38
2023-05-08T16:49:04.120Z,27.60
2023-05-08T16:54:07.232Z,27.55
2023-05-08T16:59:10.341Z,27.60
2023-05-08T17:04:13.533Z,27.70
2023-05-08T17:09:18.592Z,27.62
2023-05-08T17:14:21.808Z,27.77
2023-05-08T17:19:25.623Z,27.80
2023-05-08T17:24:29.977Z,28.10
2023-05-08T17:29:33.686Z,28.68
2023-05-08T17:34:37.738Z,29.09
2023-05-08T17:39:40.909Z,29.33
2023-05-08T17:44:44.046Z,29.79
2023-05-08T17:49:47.287Z,30.25
2023-05-08T17:54:51.377Z,30.71
2023-05-08T17:59:54.457Z,31.98
2023-05-08T18:04:58.291Z,32.76
2023-05-08T18:10:01.381Z,33.85
2023-05-08T18:15:05.653Z,34.92
2023-05-08T18:20:09.670Z,36.30
2023-05-08T18:25:13.379Z,38.00
2023-05-08T18:30:17.396Z,39.86
2023-05-08T18:35:21.952Z,41.68
2023-05-08T18:40:25.358Z,42.99
2023-05-08T18:45:29.066Z,43.22
2023-05-08T18:50:32.270Z,43.65
2023-05-08T18:55:36.001Z,44.92
2023-05-08T19:00:39.039Z,46.10
2023-05-08T19:05:42.227Z,47.18
2023-05-08T19:10:46.143Z,46.99
2023-05-08T19:15:50.310Z,46.46
2023-05-08T19:20:54.280Z,47.08
2023-05-08T19:25:57.330Z,47.44
2023-05-08T19:31:00.906Z,48.21
2023-05-08T19:36:04.215Z,49.86
2023-05-08T19:41:08.039Z,50.06
2023-05-08T19:46:10.998Z,51.06
2023-05-08T19:51:16.620Z,51.71
2023-05-08T19:56:19.714Z,51.44
2023-05-08T20:01:22.972Z,50.63
2023-05-08T20:06:26.604Z,49.95
2023-05-08T20:11:30.059Z,49.75
2023-05-08T20:16:34.026Z,49.44
2023-05-08T20:21:37.178Z,49.31
2023-05-08T20:26:41.747Z,49.63
2023-05-08T20:31:44.788Z,49.69
2023-05-08T20:36:48.038Z,49.85
2023-05-08T20:41:52.228Z,50.18
2023-05-08T20:46:57.058Z,50.44
2023-05-08T20:52:01.536Z,50.44
2023-05-08T20:57:05.198Z,50.43
2023-05-08T21:02:08.736Z,50.91
2023-05-08T21:07:11.924Z,51.97
2023-05-08T21:12:15.236Z,53.30
2023-05-08T21:17:18.551Z,54.61
2023-05-08T21:22:22.270Z,55.76
2023-05-08T21:27:27.324Z,56.86
2023-05-08T21:32:30.452Z,57.26
2023-05-08T21:37:33.652Z,57.23
2023-05-08T21:42:37.166Z,57.40
2023-05-08T21:47:40.698Z,58.03
2023-05-08T21:52:45.523Z,58.76
2023-05-08T21:57:48.738Z,60.21
2023-05-08T22:02:52.151Z,61.34
2023-05-08T22:07:55.457Z,62.37
2023-05-08T22:12:58.615Z,63.05
2023-05-08T22:18:03.127Z,63.78
2023-05-08T22:23:07.242Z,64.44
2023-05-08T22:28:10.953Z,65.18
2023-05-08T22:33:14.163Z,65.84
2023-05-08T22:38:17.372Z,66.45
2023-05-08T22:43:20.475Z,67.05
2023-05-08T22:48:23.371Z,67.68
2023-05-08T22:53:26.374Z,68.56
2023-05-08T22:58:29.476Z,69.67
2023-05-08T23:03:32.483Z,70.71
2023-05-08T23:08:35.397Z,71.00
2023-05-08T23:13:38.282Z,71.31
2023-05-08T23:18:41.488Z,71.79
2023-05-08T23:23:44.695Z,72.28
2023-05-08T23:28:47.601Z,73.69
2023-05-08T23:33:50.599Z,74.03
2023-05-08T23:38:53.910Z,73.87
2023-05-08T23:43:57.324Z,74.09
2023-05-08T23:49:00.332Z,74.44
2023-05-08T23:54:03.552Z,75.26
2023-05-08T23:59:06.853Z,76.40
